Time;durP1;ratioP1;P1;durP2;ratioP2;P2;SDS_P1;SDS_P2;PMS_P1;PMS_P2;Temp;Humidity;BMP_temperature;BMP_pressure;BME280_temperature;BME280_humidity;BME280_pressure;Samples;Min_cycle;Max_cycle;Signal;HPM_P1;HPM_P2
2022/04/18 00:00:51;;;;;;;21.33;11.17;;;9.30;99.90;;;;;;4897427;29;20707;-59
2022/04/18 00:03:19;;;;;;;21.47;11.27;;;9.40;99.90;;;;;;4904734;29;20694;-58
2022/04/18 00:05:47;;;;;;;20.97;11.50;;;9.50;99.90;;;;;;4895598;29;20258;-58
2022/04/18 00:08:16;;;;;;;25.60;13.30;;;9.40;99.90;;;;;;4895796;29;20245;-58
2022/04/18 00:10:45;;;;;;;30.50;15.37;;;9.40;99.90;;;;;;4895758;29;20249;-58
2022/04/18 00:13:13;;;;;;;30.40;15.97;;;9.40;99.90;;;;;;4895535;29;20248;-59
2022/04/18 00:15:41;;;;;;;35.60;17.80;;;9.30;99.90;;;;;;4902501;29;20809;-59
2022/04/18 00:18:09;;;;;;;43.93;22.00;;;9.30;99.90;;;;;;4895710;29;20239;-59
2022/04/18 00:20:38;;;;;;;36.83;19.00;;;9.30;99.90;;;;;;4896755;29;20786;-58
2022/04/18 00:23:06;;;;;;;42.50;22.03;;;9.20;99.90;;;;;;4891542;29;20758;-59
2022/04/18 00:25:34;;;;;;;41.37;21.53;;;9.20;99.90;;;;;;4895535;29;20254;-58
2022/04/18 00:28:04;;;;;;;36.50;18.93;;;9.10;99.90;;;;;;4895618;29;20778;-59
2022/04/18 00:30:32;;;;;;;28.30;15.57;;;8.90;99.90;;;;;;4896859;29;20248;-58
2022/04/18 00:33:00;;;;;;;36.83;19.40;;;8.90;99.90;;;;;;4898871;29;20242;-58
2022/04/18 00:35:28;;;;;;;33.20;17.23;;;8.80;99.90;;;;;;4896501;29;20265;-59
2022/04/18 00:37:56;;;;;;;30.57;17.07;;;8.70;99.90;;;;;;4895051;29;20350;-59
2022/04/18 00:40:25;;;;;;;28.20;15.40;;;8.70;99.90;;;;;;4897084;29;20626;-59
2022/04/18 00:43:01;;;;;;;28.67;15.57;;;8.60;99.90;;;;;;4895549;29;20246;-59
2022/04/18 00:45:31;;;;;;;29.03;15.27;;;8.60;99.90;;;;;;4901881;29;20719;-59
2022/04/18 00:47:59;;;;;;;32.57;16.73;;;8.50;99.90;;;;;;4895634;29;20241;-58
2022/04/18 00:50:29;;;;;;;43.43;19.90;;;8.50;99.90;;;;;;4895300;29;20246;-59
2022/04/18 00:52:58;;;;;;;41.70;20.50;;;8.50;99.90;;;;;;4895479;29;20272;-58
2022/04/18 00:55:28;;;;;;;44.13;21.30;;;8.40;99.90;;;;;;4895060;29;20241;-59
2022/04/18 00:57:57;;;;;;;44.93;20.93;;;8.40;99.90;;;;;;4893920;29;20723;-58
2022/04/18 01:00:25;;;;;;;41.37;19.77;;;8.40;99.90;;;;;;4893710;29;20234;-59
2022/04/18 01:02:55;;;;;;;37.43;17.67;;;8.40;99.90;;;;;;4898147;29;20332;-58
2022/04/18 01:05:23;;;;;;;32.13;15.70;;;8.40;99.90;;;;;;4895781;29;20715;-59
2022/04/18 01:07:52;;;;;;;30.67;15.37;;;8.50;99.90;;;;;;4895637;29;20329;-59
2022/04/18 01:10:24;;;;;;;20.37;10.97;;;8.50;99.90;;;;;;4869198;29;20241;-57
2022/04/18 01:12:52;;;;;;;21.97;12.10;;;8.60;99.90;;;;;;4894178;29;20434;-59
2022/04/18 01:15:33;;;;;;;15.57;9.20;;;8.60;99.90;;;;;;4900217;29;20240;-58
2022/04/18 01:18:12;;;;;;;13.87;8.23;;;8.40;99.90;;;;;;4893803;29;20269;-59
2022/04/18 01:21:02;;;;;;;9.70;6.20;;;8.30;99.90;;;;;;4873282;29;20729;-58
2022/04/18 01:24:00;;;;;;;9.63;6.07;;;8.20;99.90;;;;;;4888729;29;20248;-59
2022/04/18 01:29:32;;;;;;;8.00;5.30;;;8.30;99.90;;;;;;4893392;29;20254;-59
2022/04/18 01:32:00;;;;;;;4.90;4.03;;;8.40;99.90;;;;;;4894999;29;20241;-59
2022/04/18 01:34:28;;;;;;;6.77;5.20;;;8.50;99.90;;;;;;4899742;29;20756;-58
2022/04/18 01:36:58;;;;;;;8.60;5.00;;;8.60;99.90;;;;;;4893565;29;20241;-59
2022/04/18 01:39:26;;;;;;;6.23;4.33;;;8.40;99.90;;;;;;4893516;29;20237;-57
2022/04/18 01:41:55;;;;;;;6.17;4.67;;;8.50;99.90;;;;;;4895127;29;20245;-59
2022/04/18 01:44:23;;;;;;;5.83;4.60;;;8.50;99.90;;;;;;4894685;29;20250;-59
2022/04/18 01:46:51;;;;;;;5.67;4.30;;;8.40;99.90;;;;;;4899612;29;20245;-59
2022/04/18 01:49:20;;;;;;;5.40;4.20;;;8.60;99.90;;;;;;4896310;29;20246;-58
2022/04/18 01:51:48;;;;;;;7.70;4.97;;;8.50;99.90;;;;;;4896801;29;20707;-59
2022/04/18 01:54:18;;;;;;;8.57;6.23;;;8.30;99.90;;;;;;4897074;29;20237;-59
2022/04/18 01:56:46;;;;;;;12.63;6.87;;;8.30;99.90;;;;;;4899106;29;20253;-59
2022/04/18 01:59:14;;;;;;;10.10;6.70;;;8.20;99.90;;;;;;4897028;29;20594;-58
2022/04/18 02:01:42;;;;;;;10.00;6.70;;;8.20;99.90;;;;;;4895052;29;20241;-59
2022/04/18 02:04:11;;;;;;;8.60;5.90;;;8.20;99.90;;;;;;4903330;29;20281;-58
2022/04/18 02:06:40;;;;;;;8.87;6.20;;;8.10;99.90;;;;;;4910164;29;20263;-59
2022/04/18 02:09:08;;;;;;;9.33;5.93;;;8.00;99.90;;;;;;4896439;29;20234;-58
2022/04/18 02:11:38;;;;;;;6.50;5.47;;;7.90;99.90;;;;;;4890056;29;20368;-59
2022/04/18 02:14:07;;;;;;;8.40;5.70;;;7.80;99.90;;;;;;4896600;29;20252;-59
2022/04/18 02:16:35;;;;;;;8.03;5.50;;;7.70;99.90;;;;;;4903138;29;20244;-59
2022/04/18 02:19:06;;;;;;;7.67;5.20;;;7.80;99.90;;;;;;4896712;29;20609;-58
2022/04/18 02:21:34;;;;;;;11.57;7.23;;;7.90;99.90;;;;;;4897393;29;20660;-59
2022/04/18 02:24:02;;;;;;;7.83;5.50;;;7.90;99.90;;;;;;4896888;29;20241;-59
2022/04/18 02:26:31;;;;;;;10.87;6.00;;;7.90;99.90;;;;;;4897385;29;20236;-59
2022/04/18 02:29:11;;;;;;;11.17;7.03;;;7.80;99.90;;;;;;4896455;29;20241;-59
2022/04/18 02:34:22;;;;;;;17.53;9.20;;;7.70;99.90;;;;;;4903789;29;20575;-59
2022/04/18 02:36:50;;;;;;;16.63;10.80;;;7.70;99.90;;;;;;4895849;29;20241;-59
2022/04/18 02:39:20;;;;;;;16.60;10.07;;;7.50;99.90;;;;;;4896355;29;20296;-59
2022/04/18 02:41:48;;;;;;;14.83;9.77;;;7.50;99.90;;;;;;4898384;29;20323;-59
2022/04/18 02:44:17;;;;;;;17.20;10.50;;;7.50;99.90;;;;;;4896278;29;20325;-59
2022/04/18 02:46:47;;;;;;;21.17;12.27;;;7.40;99.90;;;;;;4892058;29;20324;-58
2022/04/18 02:49:15;;;;;;;20.70;12.33;;;7.30;99.90;;;;;;4896124;29;20623;-58
2022/04/18 02:51:44;;;;;;;25.60;13.17;;;7.30;99.90;;;;;;4897130;29;20249;-59
2022/04/18 02:54:16;;;;;;;22.63;10.83;;;7.20;99.90;;;;;;4896001;29;20257;-59
2022/04/18 02:56:45;;;;;;;21.43;12.53;;;7.20;99.90;;;;;;4896736;29;20737;-59
2022/04/18 02:59:13;;;;;;;31.50;14.67;;;7.40;99.90;;;;;;4895424;29;20242;-59
2022/04/18 03:01:42;;;;;;;25.70;14.20;;;7.40;99.90;;;;;;4894988;29;20284;-59
2022/04/18 03:04:11;;;;;;;32.63;14.60;;;7.30;99.90;;;;;;4902194;29;20241;-59
2022/04/18 03:06:39;;;;;;;30.10;15.57;;;7.30;99.90;;;;;;4895304;29;20265;-58
2022/04/18 03:09:09;;;;;;;31.83;16.70;;;7.20;99.90;;;;;;4895520;29;20237;-59
2022/04/18 03:11:37;;;;;;;37.90;17.87;;;7.20;99.90;;;;;;4898007;29;20260;-58
2022/04/18 03:14:05;;;;;;;34.17;16.53;;;7.30;99.90;;;;;;4895610;29;20245;-58
2022/04/18 03:16:43;;;;;;;32.40;15.30;;;7.50;99.90;;;;;;4889448;29;20776;-58
2022/04/18 03:19:12;;;;;;;24.37;13.47;;;7.40;99.90;;;;;;4899022;29;20244;-59
2022/04/18 03:21:50;;;;;;;23.37;12.13;;;7.40;99.90;;;;;;4894446;29;20241;-58
2022/04/18 03:24:18;;;;;;;20.40;12.00;;;7.30;99.90;;;;;;4896745;29;20702;-59
2022/04/18 03:26:54;;;;;;;20.60;10.97;;;7.30;99.90;;;;;;4895212;29;20296;-58
2022/04/18 03:29:28;;;;;;;21.60;12.63;;;7.10;99.90;;;;;;4896127;29;20241;-57
2022/04/18 03:31:58;;;;;;;22.03;12.33;;;7.00;99.90;;;;;;4894821;29;20248;-58
2022/04/18 03:34:31;;;;;;;20.60;12.33;;;6.90;99.90;;;;;;4900315;29;20319;-58
2022/04/18 03:39:51;;;;;;;23.57;13.80;;;6.70;99.90;;;;;;4876452;29;20325;-58
2022/04/18 03:42:30;;;;;;;23.53;13.30;;;6.60;99.90;;;;;;4898368;29;20241;-57
2022/04/18 03:45:02;;;;;;;24.90;13.43;;;6.60;99.90;;;;;;4894206;29;20241;-59
2022/04/18 03:47:32;;;;;;;26.43;13.97;;;6.50;99.90;;;;;;4893629;29;20240;-58
2022/04/18 03:50:00;;;;;;;23.77;12.60;;;6.50;99.90;;;;;;4895130;29;20281;-59
2022/04/18 03:52:31;;;;;;;27.20;14.00;;;6.70;99.90;;;;;;4893622;29;20288;-59
2022/04/18 03:55:11;;;;;;;20.17;11.23;;;6.90;99.90;;;;;;4894866;29;20579;-59
2022/04/18 03:57:40;;;;;;;21.13;11.63;;;6.90;99.90;;;;;;4887055;29;20324;-59
2022/04/18 04:00:10;;;;;;;24.03;12.37;;;6.80;99.90;;;;;;4894298;29;20236;-60
2022/04/18 04:02:43;;;;;;;19.90;12.37;;;6.70;99.90;;;;;;4895067;29;20350;-59
2022/04/18 04:05:18;;;;;;;31.70;15.30;;;6.60;99.90;;;;;;4896717;29;20256;-58
2022/04/18 04:07:50;;;;;;;23.10;13.07;;;6.60;99.90;;;;;;4894327;29;20244;-59
2022/04/18 04:10:29;;;;;;;30.20;15.40;;;6.70;99.90;;;;;;4893929;29;20605;-58
2022/04/18 04:12:57;;;;;;;28.93;15.80;;;6.60;99.90;;;;;;4893862;29;20249;-58
2022/04/18 04:15:50;;;;;;;20.37;11.87;;;6.50;99.90;;;;;;4894458;29;20245;-58
2022/04/18 04:18:25;;;;;;;24.60;13.53;;;6.50;99.90;;;;;;4895908;29;20269;-57
2022/04/18 04:20:56;;;;;;;17.77;11.00;;;6.60;99.90;;;;;;4894640;29;20233;-57
2022/04/18 04:23:25;;;;;;;19.57;12.23;;;6.70;99.90;;;;;;4896073;29;20776;-58
2022/04/18 04:26:24;;;;;;;24.67;12.43;;;6.60;99.90;;;;;;4895657;29;20293;-58
2022/04/18 04:28:54;;;;;;;20.97;12.00;;;6.70;99.90;;;;;;4894537;29;20248;-58
2022/04/18 04:31:29;;;;;;;18.77;11.00;;;6.60;99.90;;;;;;4894921;29;20247;-59
2022/04/18 04:34:01;;;;;;;21.10;12.00;;;6.50;99.90;;;;;;4899730;29;20248;-58
2022/04/18 04:36:32;;;;;;;18.07;10.83;;;6.40;99.90;;;;;;4893840;29;20311;-60
2022/04/18 04:39:00;;;;;;;19.70;12.77;;;6.50;99.90;;;;;;4890440;29;20241;-59
2022/04/18 04:41:37;;;;;;;22.03;13.57;;;6.50;99.90;;;;;;4897834;29;20750;-58
2022/04/18 04:44:06;;;;;;;19.20;11.77;;;6.50;99.90;;;;;;4893593;29;20245;-59
2022/04/18 04:46:52;;;;;;;20.37;12.57;;;6.60;99.90;;;;;;4898605;29;20251;-59
2022/04/18 04:49:23;;;;;;;16.57;11.07;;;6.60;99.90;;;;;;4894490;29;20245;-59
2022/04/18 04:52:30;;;;;;;19.83;12.60;;;6.60;99.90;;;;;;4828551;29;20292;-59
2022/04/18 04:54:58;;;;;;;22.23;13.47;;;6.70;99.90;;;;;;4822592;29;20654;-59
2022/04/18 04:57:37;;;;;;;22.20;12.40;;;6.60;99.90;;;;;;4860971;29;20320;-58
2022/04/18 05:00:28;;;;;;;19.53;11.57;;;6.50;99.90;;;;;;4895752;29;20232;-57
2022/04/18 05:03:26;;;;;;;19.57;13.17;;;6.50;99.90;;;;;;4887968;29;20236;-58
2022/04/18 05:05:56;;;;;;;20.27;12.13;;;6.50;99.90;;;;;;4894060;29;20273;-59
2022/04/18 05:08:31;;;;;;;22.03;12.83;;;6.60;99.90;;;;;;4893120;29;20237;-59
2022/04/18 05:11:01;;;;;;;19.63;12.03;;;6.60;99.90;;;;;;4894020;29;20256;-59
2022/04/18 05:13:48;;;;;;;17.83;11.33;;;6.90;99.90;;;;;;4887437;29;20613;-59
2022/04/18 05:16:20;;;;;;;15.97;10.80;;;7.10;99.90;;;;;;4900862;29;20244;-59
2022/04/18 05:19:07;;;;;;;21.00;12.07;;;7.40;99.90;;;;;;4894445;29;20251;-58
2022/04/18 05:21:37;;;;;;;18.43;11.53;;;7.30;99.90;;;;;;4897519;29;20233;-57
2022/04/18 05:24:13;;;;;;;19.00;11.27;;;7.50;99.90;;;;;;4896588;29;20354;-59
2022/04/18 05:26:41;;;;;;;15.63;10.40;;;7.60;99.90;;;;;;4898304;29;20233;-59
2022/04/18 05:29:09;;;;;;;17.57;11.33;;;7.70;99.90;;;;;;4897395;29;20785;-59
2022/04/18 05:31:38;;;;;;;19.90;12.43;;;7.80;99.90;;;;;;4893000;29;20237;-59
2022/04/18 05:34:07;;;;;;;19.13;11.90;;;7.80;99.90;;;;;;4893340;29;20691;-59
2022/04/18 05:36:52;;;;;;;18.00;11.00;;;7.80;99.90;;;;;;4897106;29;20236;-59
2022/04/18 05:39:46;;;;;;;17.23;11.60;;;7.90;99.90;;;;;;4879545;29;20333;-58
2022/04/18 05:42:14;;;;;;;19.93;11.07;;;8.00;99.90;;;;;;4893243;29;20719;-59
2022/04/18 05:44:43;;;;;;;14.97;9.53;;;8.10;99.90;;;;;;4900322;29;20233;-59
2022/04/18 05:47:11;;;;;;;16.30;10.13;;;8.30;99.90;;;;;;4900102;29;20241;-58
2022/04/18 05:49:40;;;;;;;13.83;9.13;;;8.50;99.90;;;;;;4878371;29;20617;-59
2022/04/18 05:52:09;;;;;;;14.83;9.60;;;8.70;99.90;;;;;;4894382;29;20586;-59
2022/04/18 05:54:38;;;;;;;15.57;9.77;;;8.80;99.90;;;;;;4896959;29;20241;-58
2022/04/18 05:57:07;;;;;;;12.00;8.63;;;9.00;99.90;;;;;;4896182;29;20320;-59
2022/04/18 05:59:42;;;;;;;11.77;8.50;;;9.20;99.90;;;;;;4889506;29;20717;-59
2022/04/18 06:02:14;;;;;;;11.03;7.57;;;9.50;99.90;;;;;;4902149;29;20729;-58
2022/04/18 06:04:58;;;;;;;11.93;8.20;;;9.70;99.90;;;;;;4896359;29;20237;-58
2022/04/18 06:07:48;;;;;;;9.93;7.30;;;10.00;99.90;;;;;;4890016;29;20249;-58
2022/04/18 06:10:40;;;;;;;12.00;7.50;;;10.20;99.90;;;;;;4897184;29;20317;-58
2022/04/18 06:13:31;;;;;;;10.60;7.23;;;10.40;99.90;;;;;;4878162;29;20710;-58
2022/04/18 06:16:02;;;;;;;11.30;7.60;;;10.60;99.90;;;;;;4894181;29;20239;-59
2022/04/18 06:18:30;;;;;;;11.67;7.63;;;10.80;99.90;;;;;;4894435;29;20254;-59
2022/04/18 06:21:03;;;;;;;10.47;7.23;;;11.00;99.90;;;;;;4898216;29;20324;-59
2022/04/18 06:23:34;;;;;;;10.27;7.40;;;11.20;99.90;;;;;;4897324;29;20249;-59
2022/04/18 06:26:31;;;;;;;8.97;6.90;;;11.30;99.90;;;;;;4891703;29;20696;-59
2022/04/18 06:29:01;;;;;;;11.67;7.63;;;11.40;99.90;;;;;;4896532;29;20742;-57
2022/04/18 06:31:29;;;;;;;10.27;7.27;;;11.60;99.90;;;;;;4894729;29;20247;-58
2022/04/18 06:34:01;;;;;;;10.27;7.20;;;11.80;99.90;;;;;;4893677;29;20243;-57
2022/04/18 06:36:30;;;;;;;10.77;7.47;;;12.00;99.90;;;;;;4894328;29;20267;-58
2022/04/18 06:39:17;;;;;;;9.13;7.27;;;12.20;99.90;;;;;;4894614;29;20251;-57
2022/04/18 06:41:47;;;;;;;9.93;6.97;;;12.40;99.90;;;;;;4893914;29;20396;-58
2022/04/18 06:44:21;;;;;;;9.47;7.27;;;12.70;99.90;;;;;;4896214;29;20256;-58
2022/04/18 06:46:54;;;;;;;9.30;7.40;;;12.70;99.90;;;;;;4888987;29;20248;-59
2022/04/18 06:49:52;;;;;;;9.10;6.87;;;13.00;99.90;;;;;;4894183;29;20246;-59
2022/04/18 06:52:44;;;;;;;10.03;6.90;;;13.40;99.90;;;;;;4895316;29;20251;-57
2022/04/18 06:56:58;;;;;;;9.93;7.23;;;13.60;99.90;;;;;;4895328;29;20260;-59
2022/04/18 06:58:46;;;;;;;11.67;7.17;;;13.70;99.90;;;;;;4881594;29;20692;-58
2022/04/18 07:01:14;;;;;;;11.57;7.00;;;13.90;99.90;;;;;;4888470;29;20772;-58
2022/04/18 07:03:42;;;;;;;10.37;6.50;;;14.00;99.90;;;;;;4893920;29;20356;-59
2022/04/18 07:06:11;;;;;;;9.60;6.73;;;14.00;99.90;;;;;;4888576;29;20252;-58
2022/04/18 07:08:39;;;;;;;10.73;6.87;;;14.30;99.90;;;;;;4893345;29;20630;-58
2022/04/18 07:11:34;;;;;;;10.10;7.03;;;14.30;99.90;;;;;;4893831;29;20247;-58
2022/04/18 07:14:04;;;;;;;9.93;7.30;;;14.40;99.90;;;;;;4893454;29;20241;-58
2022/04/18 07:16:32;;;;;;;9.83;7.07;;;14.40;99.90;;;;;;4892687;29;20267;-59
2022/04/18 07:19:01;;;;;;;12.50;7.40;;;14.70;99.90;;;;;;4892027;29;20249;-57
2022/04/18 07:21:29;;;;;;;10.33;7.30;;;14.90;99.90;;;;;;4895239;29;20259;-57
2022/04/18 07:23:57;;;;;;;12.43;7.97;;;15.20;99.90;;;;;;4893116;29;20252;-59
2022/04/18 07:26:26;;;;;;;12.57;8.10;;;15.20;99.90;;;;;;4893690;29;20279;-57
2022/04/18 07:28:56;;;;;;;9.87;7.53;;;15.30;99.90;;;;;;4892451;29;20323;-58
2022/04/18 07:31:25;;;;;;;10.23;6.90;;;15.50;99.90;;;;;;4888833;29;20242;-58
2022/04/18 07:33:54;;;;;;;10.53;7.47;;;15.80;99.90;;;;;;4890385;29;20251;-57
2022/04/18 07:36:25;;;;;;;11.13;7.17;;;16.00;99.90;;;;;;4877064;29;20248;-59
2022/04/18 07:38:57;;;;;;;10.40;7.10;;;16.20;99.90;;;;;;4856122;29;20241;-59
2022/04/18 07:41:35;;;;;;;9.80;7.23;;;16.30;99.90;;;;;;4892381;29;20240;-58
2022/04/18 07:44:07;;;;;;;9.33;6.73;;;16.20;99.90;;;;;;4893540;29;20634;-60
2022/04/18 07:46:38;;;;;;;10.00;7.27;;;16.40;99.90;;;;;;4860099;29;20302;-58
2022/04/18 07:49:17;;;;;;;7.90;6.53;;;16.70;99.90;;;;;;4889218;29;20368;-58
2022/04/18 07:51:49;;;;;;;10.50;7.00;;;16.90;99.90;;;;;;4891397;29;20261;-57
2022/04/18 07:54:24;;;;;;;9.97;6.87;;;17.00;99.90;;;;;;4889795;29;20251;-58
2022/04/18 07:56:53;;;;;;;7.23;6.07;;;17.00;99.90;;;;;;4891843;29;20566;-59
2022/04/18 07:59:34;;;;;;;8.27;6.47;;;17.30;99.90;;;;;;4888535;29;20252;-59
2022/04/18 08:02:08;;;;;;;7.13;5.93;;;17.60;99.90;;;;;;4889507;29;20300;-58
2022/04/18 08:04:56;;;;;;;7.43;6.20;;;17.80;99.90;;;;;;4893848;29;20368;-58
2022/04/18 08:07:36;;;;;;;8.00;5.87;;;17.90;99.90;;;;;;4889686;29;20229;-58
2022/04/18 08:10:05;;;;;;;9.43;6.57;;;18.00;99.90;;;;;;4888658;29;20674;-59
2022/04/18 08:12:40;;;;;;;8.63;5.63;;;18.20;99.90;;;;;;4890399;29;20309;-58
2022/04/18 08:15:28;;;;;;;8.93;6.30;;;18.10;99.90;;;;;;4889322;29;20275;-58
2022/04/18 08:17:57;;;;;;;8.07;5.67;;;17.90;99.70;;;;;;4893230;29;20344;-59
2022/04/18 08:20:48;;;;;;;9.20;5.77;;;18.10;99.60;;;;;;4883711;29;20246;-58
2022/04/18 08:23:17;;;;;;;8.53;5.50;;;18.20;99.40;;;;;;4893757;29;20329;-58
2022/04/18 08:26:21;;;;;;;9.03;5.17;;;18.20;98.40;;;;;;4841781;29;20780;-57
2022/04/18 08:28:55;;;;;;;6.97;5.37;;;18.10;99.00;;;;;;4894749;29;20332;-59
2022/04/18 08:31:26;;;;;;;6.70;4.93;;;18.50;99.00;;;;;;4892706;29;20249;-57
2022/04/18 08:34:01;;;;;;;6.00;4.67;;;18.60;96.60;;;;;;4890862;29;20329;-58
2022/04/18 08:36:30;;;;;;;6.93;5.50;;;18.70;97.00;;;;;;4890876;29;20243;-58
2022/04/18 08:39:00;;;;;;;6.97;4.97;;;18.80;96.70;;;;;;4886893;29;20270;-59
2022/04/18 08:42:01;;;;;;;8.97;5.30;;;18.80;95.40;;;;;;4884627;29;20237;-58
2022/04/18 08:44:35;;;;;;;6.60;5.17;;;19.10;96.20;;;;;;4890134;29;20319;-59
2022/04/18 08:47:05;;;;;;;6.40;4.60;;;19.30;95.30;;;;;;4892553;29;20257;-58
2022/04/18 08:55:17;;;;;;;5.83;4.93;;;19.40;95.10;;;;;;4891497;29;20238;-58
2022/04/18 08:57:45;;;;;;;7.63;5.13;;;19.40;95.50;;;;;;4891705;29;20239;-58
2022/04/18 09:00:14;;;;;;;7.37;5.50;;;19.60;94.60;;;;;;4895782;29;20715;-58
2022/04/18 09:02:49;;;;;;;6.37;5.10;;;19.60;93.20;;;;;;4897615;29;20244;-58
2022/04/18 09:05:36;;;;;;;6.53;5.00;;;19.50;93.90;;;;;;4897100;29;20239;-58
2022/04/18 09:08:06;;;;;;;5.87;4.33;;;19.60;92.30;;;;;;4897595;29;20239;-60
2022/04/18 09:10:37;;;;;;;4.70;3.97;;;19.60;93.10;;;;;;4897302;29;20590;-59
2022/04/18 09:13:07;;;;;;;5.50;4.40;;;19.90;92.80;;;;;;4897660;29;20243;-59
2022/04/18 09:15:57;;;;;;;5.03;3.67;;;20.10;91.90;;;;;;4899190;29;20244;-59
2022/04/18 09:18:28;;;;;;;4.60;3.93;;;20.10;90.50;;;;;;4898750;29;20323;-59
2022/04/18 09:21:00;;;;;;;5.03;4.00;;;19.70;90.40;;;;;;4896224;29;20602;-58
2022/04/18 09:23:34;;;;;;;5.10;3.77;;;19.80;89.40;;;;;;4897145;29;20248;-59
2022/04/18 09:26:22;;;;;;;3.53;2.80;;;20.00;89.50;;;;;;4898471;29;20240;-59
2022/04/18 09:28:50;;;;;;;4.00;3.20;;;19.60;85.70;;;;;;4892783;29;20584;-59
2022/04/18 09:31:20;;;;;;;3.50;3.20;;;19.40;85.70;;;;;;4897375;29;20243;-58
2022/04/18 09:34:00;;;;;;;4.93;4.17;;;19.70;87.90;;;;;;4894138;29;20693;-59
2022/04/18 09:36:31;;;;;;;4.23;3.67;;;19.60;85.60;;;;;;4895834;29;20246;-59
2022/04/18 09:39:00;;;;;;;3.90;3.00;;;19.90;86.10;;;;;;4881675;29;20604;-58
2022/04/18 09:41:29;;;;;;;5.03;3.17;;;19.60;82.30;;;;;;4899310;29;20247;-59
2022/04/18 09:44:04;;;;;;;4.80;3.70;;;19.60;80.90;;;;;;4897595;29;20274;-58
2022/04/18 09:46:39;;;;;;;4.33;3.40;;;19.60;82.30;;;;;;4903738;29;20236;-58
2022/04/18 09:49:14;;;;;;;4.03;3.33;;;19.60;80.50;;;;;;4897422;29;20271;-58
2022/04/18 09:51:48;;;;;;;5.60;3.70;;;19.50;82.20;;;;;;4897192;29;20244;-59
2022/04/18 09:54:20;;;;;;;5.00;3.70;;;19.60;82.60;;;;;;4897050;29;20319;-58
2022/04/18 09:56:51;;;;;;;4.87;4.03;;;20.00;80.50;;;;;;4897908;29;20283;-59
2022/04/18 09:59:20;;;;;;;5.80;4.50;;;20.20;80.80;;;;;;4898269;29;20244;-59
2022/04/18 10:01:48;;;;;;;6.17;4.33;;;20.10;81.10;;;;;;4901998;29;20248;-59
2022/04/18 10:04:19;;;;;;;4.97;4.27;;;19.70;81.40;;;;;;4898129;29;20277;-59
2022/04/18 10:06:50;;;;;;;5.40;4.10;;;20.10;82.40;;;;;;4897822;29;20240;-58
2022/04/18 10:09:19;;;;;;;5.17;3.97;;;20.50;81.60;;;;;;4898147;29;20713;-59
2022/04/18 10:11:48;;;;;;;5.57;4.20;;;20.70;80.30;;;;;;4898047;29;20268;-59
2022/04/18 10:14:16;;;;;;;5.10;4.33;;;20.80;79.70;;;;;;4890660;29;20274;-58
2022/04/18 10:16:46;;;;;;;3.90;3.50;;;20.70;77.10;;;;;;4894616;29;20279;-59
2022/04/18 10:19:28;;;;;;;4.57;4.00;;;20.80;77.50;;;;;;4900355;29;20243;-58
2022/04/18 10:22:13;;;;;;;6.17;4.57;;;20.80;75.80;;;;;;4897110;29;20732;-57
2022/04/18 10:25:17;;;;;;;4.63;3.97;;;20.60;75.10;;;;;;4894479;29;20241;-59
2022/04/18 10:28:04;;;;;;;5.27;4.00;;;21.00;74.70;;;;;;4867256;29;20324;-58
2022/04/18 10:30:40;;;;;;;21.20;5.00;;;21.20;75.50;;;;;;4898262;29;20249;-59
2022/04/18 10:33:11;;;;;;;6.60;5.00;;;21.50;74.20;;;;;;4895205;29;20619;-58
2022/04/18 10:35:52;;;;;;;23.63;4.57;;;21.50;77.10;;;;;;4890967;29;20705;-59
2022/04/18 10:38:25;;;;;;;7.30;4.27;;;21.90;79.30;;;;;;4891235;29;20292;-59
2022/04/18 10:41:14;;;;;;;5.93;4.30;;;22.10;75.80;;;;;;4891950;29;20697;-59
2022/04/18 10:44:05;;;;;;;6.33;3.80;;;22.10;74.10;;;;;;4885960;29;20272;-59
2022/04/18 10:46:33;;;;;;;6.03;4.20;;;22.30;74.30;;;;;;4902083;29;20241;-59
2022/04/18 10:49:04;;;;;;;4.33;3.93;;;22.40;73.80;;;;;;4891747;29;20249;-59
2022/04/18 10:51:36;;;;;;;5.27;4.20;;;22.30;70.70;;;;;;4889955;29;20344;-58
2022/04/18 10:54:10;;;;;;;4.40;3.40;;;22.50;73.00;;;;;;4897583;29;20714;-59
2022/04/18 10:56:53;;;;;;;4.27;3.73;;;22.90;74.40;;;;;;4893610;29;20327;-59
2022/04/18 10:59:23;;;;;;;6.90;4.57;;;23.10;72.30;;;;;;4897491;29;20241;-58
2022/04/18 11:01:53;;;;;;;5.13;4.00;;;23.00;71.00;;;;;;4896819;29;20233;-59
2022/04/18 11:04:25;;;;;;;5.53;4.80;;;22.60;70.60;;;;;;4897125;29;20241;-59
2022/04/18 11:07:02;;;;;;;5.67;4.00;;;22.20;69.90;;;;;;4897239;29;20331;-59
2022/04/18 11:09:32;;;;;;;4.30;3.70;;;21.80;69.30;;;;;;4896593;29;20683;-59
2022/04/18 11:12:06;;;;;;;6.67;4.23;;;22.00;70.10;;;;;;4897940;29;20252;-58
2022/04/18 11:14:47;;;;;;;4.63;3.83;;;22.30;69.10;;;;;;4898798;29;20253;-58
2022/04/18 11:17:27;;;;;;;5.40;4.23;;;22.80;70.10;;;;;;4899227;29;20245;-59
2022/04/18 11:19:55;;;;;;;5.33;4.30;;;22.80;70.00;;;;;;4896527;29;20638;-59
2022/04/18 11:22:25;;;;;;;4.73;3.93;;;22.80;69.40;;;;;;4900286;29;20244;-59
2022/04/18 11:25:00;;;;;;;4.40;3.60;;;23.00;67.70;;;;;;4897049;29;20257;-58
2022/04/18 11:27:36;;;;;;;5.03;3.80;;;23.20;66.60;;;;;;4897381;29;20298;-58
2022/04/18 11:30:11;;;;;;;4.53;3.47;;;23.60;65.80;;;;;;4896409;29;20273;-59
2022/04/18 11:32:41;;;;;;;4.40;3.77;;;23.60;67.10;;;;;;4887742;29;20245;-58
2022/04/18 11:35:15;;;;;;;5.13;3.63;;;23.30;63.20;;;;;;4879920;29;20241;-59
2022/04/18 11:37:46;;;;;;;4.53;3.43;;;22.20;62.60;;;;;;4896115;29;20252;-58
2022/04/18 11:40:16;;;;;;;4.63;3.20;;;21.70;60.40;;;;;;4896165;29;20656;-58
2022/04/18 11:42:45;;;;;;;4.70;3.73;;;21.90;61.00;;;;;;4900217;29;20241;-59
2022/04/18 11:45:24;;;;;;;5.73;3.83;;;21.80;61.80;;;;;;4901670;29;20299;-58
2022/04/18 11:47:52;;;;;;;3.90;3.17;;;21.90;63.40;;;;;;4896424;29;20241;-60
2022/04/18 11:50:22;;;;;;;4.40;3.70;;;21.90;60.20;;;;;;4893583;29;20233;-59
2022/04/18 11:53:01;;;;;;;3.63;3.30;;;22.10;62.20;;;;;;4888292;29;20245;-59
2022/04/18 11:55:30;;;;;;;3.77;3.23;;;22.40;64.70;;;;;;4888187;29;20328;-59
2022/04/18 11:57:58;;;;;;;5.70;3.60;;;22.20;62.30;;;;;;4893765;29;20583;-59
2022/04/18 12:08:48;;;;;;;6.33;4.10;;;21.50;65.20;;;;;;4893994;29;20237;-60
2022/04/18 12:11:16;;;;;;;5.47;4.20;;;21.50;66.00;;;;;;4898812;29;20236;-59
2022/04/18 12:13:46;;;;;;;7.47;4.07;;;21.30;65.00;;;;;;4894683;29;20245;-58
2022/04/18 12:16:21;;;;;;;4.60;4.00;;;21.00;65.10;;;;;;4897922;29;20247;-60
2022/04/18 12:18:54;;;;;;;3.90;3.50;;;20.90;64.40;;;;;;4892864;29;20248;-60
2022/04/18 12:21:23;;;;;;;5.00;3.47;;;21.00;65.60;;;;;;4890031;29;20252;-59
2022/04/18 12:23:56;;;;;;;4.47;3.60;;;20.90;68.30;;;;;;4894337;29;20746;-59
2022/04/18 12:26:26;;;;;;;4.00;3.53;;;21.00;67.90;;;;;;4898555;29;20501;-60
2022/04/18 12:29:00;;;;;;;6.50;4.30;;;20.90;69.00;;;;;;4893221;29;20248;-59
2022/04/18 12:31:28;;;;;;;4.47;3.70;;;20.80;69.70;;;;;;4898853;29;20302;-59
2022/04/18 12:33:58;;;;;;;4.63;3.50;;;20.70;68.40;;;;;;4890083;29;20240;-59
2022/04/18 12:36:27;;;;;;;4.93;3.80;;;20.80;67.10;;;;;;4895197;29;20236;-60
2022/04/18 12:38:57;;;;;;;5.20;4.17;;;20.70;67.40;;;;;;4893385;29;20240;-59
2022/04/18 12:41:30;;;;;;;6.83;5.50;;;20.60;69.80;;;;;;4893377;29;20237;-58
2022/04/18 12:43:58;;;;;;;7.40;5.50;;;20.40;71.30;;;;;;4891124;29;20240;-60
2022/04/18 12:46:30;;;;;;;7.27;6.30;;;19.90;74.40;;;;;;4891915;29;20237;-60
2022/04/18 12:48:58;;;;;;;6.13;5.40;;;19.50;75.20;;;;;;4896547;29;20749;-59
2022/04/18 12:51:33;;;;;;;6.63;5.77;;;19.80;76.20;;;;;;4888563;29;20237;-59
2022/04/18 12:54:03;;;;;;;6.33;5.20;;;19.80;77.30;;;;;;4892978;29;20247;-59
2022/04/18 12:56:33;;;;;;;5.10;4.50;;;20.00;78.60;;;;;;4893375;29;20604;-60
2022/04/18 12:59:04;;;;;;;5.37;3.97;;;20.20;76.40;;;;;;4892940;29;20241;-60
2022/04/18 13:01:34;;;;;;;6.00;3.93;;;20.30;75.50;;;;;;4894643;29;20347;-58
2022/04/18 13:04:04;;;;;;;5.47;4.10;;;20.10;73.60;;;;;;4887747;29;20245;-59
2022/04/18 13:06:34;;;;;;;4.50;3.83;;;20.10;74.60;;;;;;4891269;29;21623;-59
2022/04/18 13:09:07;;;;;;;7.00;5.00;;;20.20;76.00;;;;;;4896683;29;20296;-59
2022/04/18 13:11:43;;;;;;;7.73;6.10;;;20.10;76.20;;;;;;4893248;29;20809;-60
2022/04/18 13:14:12;;;;;;;7.80;5.20;;;19.70;77.10;;;;;;4890895;29;20335;-58
2022/04/18 13:16:42;;;;;;;6.33;5.13;;;19.50;77.20;;;;;;4891373;29;20243;-58
2022/04/18 13:19:13;;;;;;;6.60;4.70;;;19.20;79.60;;;;;;4893656;29;20327;-59
2022/04/18 13:21:42;;;;;;;5.40;4.27;;;19.40;79.40;;;;;;4893173;29;20744;-59
2022/04/18 13:24:12;;;;;;;4.57;3.93;;;19.30;80.00;;;;;;4894664;29;21308;-60
2022/04/18 13:26:40;;;;;;;5.77;4.43;;;19.40;79.60;;;;;;4892922;29;20340;-60
2022/04/18 13:29:08;;;;;;;5.70;4.87;;;19.40;78.80;;;;;;4895135;29;20842;-57
2022/04/18 13:31:36;;;;;;;5.57;4.60;;;19.30;78.90;;;;;;4896239;29;20246;-59
2022/04/18 13:34:04;;;;;;;5.40;4.40;;;19.10;80.60;;;;;;4891431;29;20338;-58
2022/04/18 13:36:37;;;;;;;5.43;4.30;;;19.00;80.90;;;;;;4886471;29;20253;-60